Mercredi 20 Novembre 2019
09H08 UTC - 10H08 CET

Tableau Semaine

 /   
Donnes mto - Semaine 18/11/19 - 24/11/19 (S 47) - Petite France - Strasbourg - Alsace - France     153 m niveau au-dessus de la mer
Donnes mto: Semaine 18/11/19 - 24/11/19 (S 47)
Date Horaire Temp. E. Hum. E. P.atmo. Pluie Vent Direction P. de rose Temp au vent Rafales
18/11/2019 00:00 3,5 C 90 % 1004 hPa 0,0 mm 2 km/h (1 Bft) S-SE 2 C 3,1 C 2,5 km/h (1 Bft)
18/11/2019 01:00 3,3 C 89 % 1004 hPa 0,0 mm 1 km/h (0 Bft) S-SE 2 C 3,3 C 0,6 km/h (0 Bft)
18/11/2019 02:00 3,4 C 89 % 1004 hPa 0,0 mm 0 km/h (0 Bft) S-SE 2 C 3,4 C 0,2 km/h (0 Bft)
18/11/2019 03:00 3,5 C 89 % 1004 hPa 0,0 mm 0 km/h (0 Bft) S-SO 2 C 3,5 C 0,3 km/h (0 Bft)
18/11/2019 04:00 3,6 C 89 % 1004 hPa 0,0 mm 1 km/h (0 Bft) S 2 C 3,6 C 0,5 km/h (0 Bft)
18/11/2019 05:00 3,6 C 89 % 1004 hPa 0,0 mm 1 km/h (0 Bft) S-SO 2 C 3,4 C 1,1 km/h (1 Bft)
18/11/2019 06:00 3,5 C 90 % 1005 hPa 0,0 mm 0 km/h (0 Bft) N 2 C 3,5 C 0,0 km/h (0 Bft)
18/11/2019 07:00 2,9 C 90 % 1005 hPa 0,0 mm 1 km/h (0 Bft) S-SE 1 C 2,9 C 1,3 km/h (1 Bft)
18/11/2019 08:00 3,0 C 90 % 1006 hPa 0,5 mm 2 km/h (1 Bft) S-SE 2 C 3,0 C 1,8 km/h (1 Bft)
18/11/2019 09:00 3,3 C 90 % 1007 hPa 0,0 mm 2 km/h (1 Bft) S-SE 2 C 3,2 C 3,1 km/h (1 Bft)
18/11/2019 10:00 3,8 C 90 % 1008 hPa 0,0 mm 1 km/h (0 Bft) S-SE 2 C 3,8 C 0,9 km/h (0 Bft)
18/11/2019 11:00 4,5 C 89 % 1008 hPa 0,0 mm 4 km/h (1 Bft) S-SE 3 C 3,6 C 5,3 km/h (1 Bft)
18/11/2019 12:00 4,9 C 88 % 1008 hPa 0,0 mm 2 km/h (1 Bft) S-SO 3 C 4,8 C 2,2 km/h (1 Bft)
18/11/2019 13:00 5,3 C 86 % 1009 hPa 0,0 mm 1 km/h (0 Bft) S-SO 3 C 5,3 C 0,8 km/h (0 Bft)
18/11/2019 14:00 5,5 C 84 % 1009 hPa 0,0 mm 2 km/h (1 Bft) SO 3 C 5,5 C 1,8 km/h (1 Bft)
18/11/2019 15:00 5,5 C 82 % 1010 hPa 0,0 mm 1 km/h (0 Bft) S-SE 3 C 5,5 C 0,8 km/h (0 Bft)
18/11/2019 16:00 5,4 C 82 % 1010 hPa 0,0 mm 2 km/h (1 Bft) S-SO 3 C 5,3 C 2,4 km/h (1 Bft)
18/11/2019 17:00 5,4 C 81 % 1011 hPa 0,0 mm 2 km/h (1 Bft) S-SO 2 C 5,2 C 3,6 km/h (1 Bft)
18/11/2019 18:00 5,4 C 81 % 1012 hPa 0,0 mm 1 km/h (0 Bft) S-SO 2 C 5,3 C 1,1 km/h (0 Bft)
18/11/2019 19:00 5,4 C 83 % 1012 hPa 0,0 mm 1 km/h (0 Bft) S-SE 3 C 5,4 C 0,6 km/h (0 Bft)
18/11/2019 20:00 5,3 C 84 % 1013 hPa 0,0 mm 0 km/h (0 Bft) S-SO 3 C 5,3 C 0,5 km/h (0 Bft)
18/11/2019 21:00 5,2 C 86 % 1013 hPa 0,0 mm 1 km/h (0 Bft) S 3 C 5,2 C 0,5 km/h (0 Bft)
18/11/2019 22:00 5,2 C 86 % 1014 hPa 0,0 mm 1 km/h (0 Bft) S-SE 3 C 5,2 C 1,0 km/h (0 Bft)
18/11/2019 23:00 5,3 C 86 % 1014 hPa 0,0 mm 2 km/h (1 Bft) S-SE 3 C 5,1 C 2,4 km/h (1 Bft)
19/11/2019 00:00 5,2 C 85 % 1014 hPa 0,0 mm 0 km/h (0 Bft) S-SO 3 C 5,2 C 0,5 km/h (0 Bft)
19/11/2019 01:00 5,0 C 85 % 1014 hPa 0,0 mm 1 km/h (1 Bft) S-SE 3 C 5,0 C 1,2 km/h (1 Bft)
19/11/2019 02:00 4,4 C 86 % 1014 hPa 0,0 mm 0 km/h (0 Bft) S-SE 2 C 4,4 C 0,5 km/h (0 Bft)
19/11/2019 03:00 4,5 C 86 % 1014 hPa 0,0 mm 0 km/h (0 Bft) N 2 C 4,5 C 0,0 km/h (0 Bft)
19/11/2019 04:00 4,8 C 86 % 1014 hPa 0,0 mm 0 km/h (0 Bft) N 3 C 4,8 C 0,0 km/h (0 Bft)
19/11/2019 05:00 4,8 C 86 % 1014 hPa 0,0 mm 2 km/h (1 Bft) S-SE 3 C 4,4 C 1,9 km/h (1 Bft)
19/11/2019 06:00 4,9 C 86 % 1015 hPa 0,0 mm 0 km/h (0 Bft) N 3 C 4,9 C 0,0 km/h (0 Bft)
19/11/2019 07:00 4,7 C 87 % 1015 hPa 0,0 mm 0 km/h (0 Bft) N 3 C 4,7 C 0,0 km/h (0 Bft)
19/11/2019 08:00 4,5 C 89 % 1015 hPa 0,0 mm 0 km/h (0 Bft) S 3 C 4,5 C 0,3 km/h (0 Bft)
19/11/2019 09:00 4,8 C 89 % 1016 hPa 0,0 mm 0 km/h (0 Bft) N 3 C 4,8 C 0,0 km/h (0 Bft)
19/11/2019 10:00 5,5 C 89 % 1016 hPa 0,0 mm 0 km/h (0 Bft) S-SE 4 C 5,5 C 0,2 km/h (0 Bft)
19/11/2019 11:00 6,1 C 88 % 1016 hPa 0,0 mm 0 km/h (0 Bft) N 4 C 6,1 C 0,0 km/h (0 Bft)
19/11/2019 12:00 6,9 C 87 % 1016 hPa 0,0 mm 0 km/h (0 Bft) N 5 C 6,9 C 0,0 km/h (0 Bft)
19/11/2019 13:00 7,2 C 85 % 1016 hPa 0,0 mm 0 km/h (0 Bft) N 5 C 7,2 C 0,0 km/h (0 Bft)
19/11/2019 14:00 6,6 C 85 % 1016 hPa 0,0 mm 0 km/h (0 Bft) N-NE 4 C 6,6 C 0,1 km/h (0 Bft)
19/11/2019 15:00 6,6 C 83 % 1016 hPa 0,0 mm 0 km/h (0 Bft) SO 4 C 6,6 C 0,2 km/h (0 Bft)
19/11/2019 16:00 6,6 C 82 % 1016 hPa 0,0 mm 0 km/h (0 Bft) N 4 C 6,6 C 0,0 km/h (0 Bft)
19/11/2019 17:00 6,3 C 82 % 1017 hPa 0,0 mm 0 km/h (0 Bft) N 4 C 6,3 C 0,0 km/h (0 Bft)
19/11/2019 18:00 5,8 C 85 % 1017 hPa 0,0 mm 0 km/h (0 Bft) N 4 C 5,8 C 0,0 km/h (0 Bft)
19/11/2019 19:00 5,4 C 85 % 1017 hPa 0,0 mm 0 km/h (0 Bft) N 3 C 5,4 C 0,0 km/h (0 Bft)
19/11/2019 20:00 4,9 C 86 % 1017 hPa 0,0 mm 0 km/h (0 Bft) N 3 C 4,9 C 0,0 km/h (0 Bft)
19/11/2019 21:00 4,2 C 88 % 1017 hPa 0,0 mm 0 km/h (0 Bft) N 2 C 4,2 C 0,1 km/h (0 Bft)
19/11/2019 22:00 3,6 C 89 % 1017 hPa 0,0 mm 0 km/h (0 Bft) N 2 C 3,6 C 0,0 km/h (0 Bft)
19/11/2019 23:00 2,7 C 89 % 1017 hPa 0,0 mm 0 km/h (0 Bft) N 1 C 2,7 C 0,0 km/h (0 Bft)
20/11/2019 00:00 2,2 C 90 % 1017 hPa 0,0 mm 0 km/h (0 Bft) N 1 C 2,2 C 0,0 km/h (0 Bft)
Min-Date _ 20/11/19 19/11/19 18/11/19 - 18/11/19 - 20/11/19 18/11/19 18/11/19
_ Min-Heure 00:00 17:10 02:55 - 00:10 - 00:00 00:05 00:10
Minimum _ 2,2 C 80 % 1003 hPa - 0 km/h (0 Bft) - 1 C -1,0 C 0,0 km/h (0 Bft)
Max-Date _ 19/11/19 18/11/19 19/11/19 18/11/19 18/11/19 - 19/11/19 19/11/19 18/11/19
_ Max-Heure 13:05 00:00 17:15 08:20 11:15 - 13:05 13:05 00:05
Maximum _ 7,4 C 90 % 1017 hPa 0,5 mm 13 km/h
S-SE (3 Bft)
- 5 C 7,4 C 21,6 km/h
S-SE (4 Bft)
Moyenne _ 4,8 C 87 % 1012 hPa #0,5 mm 1 km/h (0 Bft) S-SE 3 C 4,7 C 0,8 km/h (0 Bft)

Haut de la page